Time;durP1;ratioP1;P1;durP2;ratioP2;P2;SDS_P1;SDS_P2;PMS_P1;PMS_P2;Temp;Humidity;BMP_temperature;BMP_pressure;BME280_temperature;BME280_humidity;BME280_pressure;Samples;Min_cycle;Max_cycle;Signal;HPM_P1;HPM_P2
2022/03/20 00:00:03;;;;;;;26.30;16.80;;;;;;;5.36;43.99;102765.31;690747;28;1243;-94
2022/03/20 00:00:33;;;;;;;28.10;16.95;;;;;;;5.45;43.85;102779.00;693508;28;1322;-93
2022/03/20 00:00:54;;;;;;;29.52;16.90;;;;;;;5.43;44.08;102775.38;692932;28;1887;-93
2022/03/20 00:01:14;;;;;;;28.77;16.45;;;;;;;5.42;44.28;102776.16;687832;28;1316;-92
2022/03/20 00:01:35;;;;;;;25.25;15.68;;;;;;;5.36;44.15;102773.06;696054;28;1185;-93
2022/03/20 00:01:55;;;;;;;22.17;15.17;;;;;;;5.39;43.98;102781.06;690648;28;1230;-94
2022/03/20 00:02:17;;;;;;;22.57;15.37;;;;;;;5.37;44.12;102772.28;690541;28;1254;-93
2022/03/20 00:02:37;;;;;;;23.48;15.98;;;;;;;5.36;44.18;102775.66;691548;28;1411;-94
2022/03/20 00:02:58;;;;;;;22.98;16.38;;;;;;;5.29;44.23;102756.09;692721;28;1192;-94
2022/03/20 00:03:18;;;;;;;21.83;15.90;;;;;;;5.30;44.14;102762.22;690579;28;1248;-93
2022/03/20 00:03:39;;;;;;;24.07;15.87;;;;;;;5.30;44.10;102762.22;691896;28;1225;-93
2022/03/20 00:03:59;;;;;;;24.15;15.73;;;;;;;5.32;44.31;102765.81;687963;28;1281;-93
2022/03/20 00:04:20;;;;;;;25.70;16.17;;;;;;;5.19;44.35;102749.31;692916;28;1124;-93
2022/03/20 00:04:40;;;;;;;24.40;15.95;;;;;;;5.24;44.62;102761.69;693286;28;1151;-93
2022/03/20 00:05:02;;;;;;;24.58;15.57;;;;;;;5.19;44.58;102754.47;688108;28;1326;-94
2022/03/20 00:05:23;;;;;;;25.90;15.60;;;;;;;5.20;44.45;102753.69;693388;28;1325;-94
2022/03/20 00:05:47;;;;;;;27.50;15.60;;;;;;;5.16;44.51;102751.63;690536;28;1249;-93
2022/03/20 00:06:08;;;;;;;26.27;15.77;;;;;;;5.20;44.15;102751.09;690618;28;1424;-93
2022/03/20 00:06:28;;;;;;;23.30;15.03;;;;;;;5.27;44.42;102764.56;696333;28;1778;-93
2022/03/20 00:06:49;;;;;;;21.48;15.15;;;;;;;5.20;44.43;102757.94;694108;28;1408;-94
2022/03/20 00:07:11;;;;;;;22.93;15.40;;;;;;;5.19;44.30;102759.66;693476;28;1270;-93
2022/03/20 00:07:34;;;;;;;25.00;15.75;;;;;;;5.11;44.50;102745.19;690665;28;1249;-93
2022/03/20 00:07:58;;;;;;;25.83;16.25;;;;;;;5.15;44.24;102752.41;690802;28;1294;-92
2022/03/20 00:08:18;;;;;;;26.75;16.50;;;;;;;5.13;44.53;102753.03;690732;28;1340;-93
2022/03/20 00:08:40;;;;;;;25.58;16.83;;;;;;;5.14;44.73;102750.59;693497;28;1268;-93
2022/03/20 00:09:01;;;;;;;24.27;16.53;;;;;;;5.09;44.35;102741.53;688120;28;1285;-93
2022/03/20 00:09:21;;;;;;;23.23;16.10;;;;;;;5.14;44.71;102755.78;693378;28;1247;-93
2022/03/20 00:09:42;;;;;;;24.45;16.00;;;;;;;5.12;44.71;102766.78;693078;28;1711;-93
2022/03/20 00:10:05;;;;;;;24.93;16.07;;;;;;;5.14;44.52;102760.94;690666;28;1171;-93
2022/03/20 00:10:28;;;;;;;26.05;16.45;;;;;;;5.03;44.66;102746.22;688107;28;1289;-93
2022/03/20 00:10:52;;;;;;;24.98;15.98;;;;;;;4.98;45.05;102737.16;690507;28;1454;-92
2022/03/20 00:11:13;;;;;;;25.10;16.10;;;;;;;5.02;44.90;102753.06;693320;28;1343;-93
2022/03/20 00:11:33;;;;;;;24.83;16.17;;;;;;;5.03;44.78;102756.59;690700;28;1090;-94
2022/03/20 00:11:54;;;;;;;25.30;16.35;;;;;;;4.97;45.13;102741.44;687915;28;1354;-92
2022/03/20 00:12:14;;;;;;;25.50;16.37;;;;;;;5.01;45.02;102740.00;693135;28;1265;-93
2022/03/20 00:12:35;;;;;;;23.17;15.93;;;;;;;4.97;44.80;102740.53;692048;28;1816;-93
2022/03/20 00:12:56;;;;;;;22.00;15.80;;;;;;;4.95;44.86;102732.63;688016;28;1294;-93
2022/03/20 00:13:19;;;;;;;20.70;15.52;;;;;;;4.99;45.18;102746.75;694716;28;1653;-93
2022/03/20 00:13:40;;;;;;;22.27;16.08;;;;;;;5.02;44.92;102747.91;693012;28;1268;-93
2022/03/20 00:14:01;;;;;;;24.13;16.27;;;;;;;4.97;45.06;102744.00;692455;28;1301;-92
2022/03/20 00:14:21;;;;;;;24.70;16.38;;;;;;;5.08;44.88;102755.25;693163;28;1256;-93
2022/03/20 00:14:42;;;;;;;24.30;16.50;;;;;;;5.02;44.81;102740.13;687960;28;1144;-93
2022/03/20 00:15:04;;;;;;;24.53;16.47;;;;;;;5.04;44.86;102748.91;693356;28;1179;-93
2022/03/20 00:15:24;;;;;;;25.17;16.70;;;;;;;5.07;44.73;102743.09;690674;28;1258;-93
2022/03/20 00:15:48;;;;;;;25.92;16.90;;;;;;;5.06;44.97;102747.38;690432;28;1567;-93
2022/03/20 00:16:10;;;;;;;25.33;16.90;;;;;;;4.98;45.03;102739.75;693321;28;1364;-93
2022/03/20 00:16:31;;;;;;;24.52;16.73;;;;;;;5.03;44.82;102743.66;687977;28;1248;-93
2022/03/20 00:16:51;;;;;;;25.38;16.77;;;;;;;5.04;44.65;102745.44;690237;28;1265;-93
2022/03/20 00:17:13;;;;;;;24.63;16.83;;;;;;;5.04;45.13;102748.91;690543;28;1277;-93
2022/03/20 00:17:34;;;;;;;24.73;17.05;;;;;;;5.08;45.00;102752.66;690819;28;1408;-93
2022/03/20 00:17:55;;;;;;;25.05;16.48;;;;;;;5.00;45.11;102738.19;690707;28;1352;-90
2022/03/20 00:18:17;;;;;;;24.33;16.40;;;;;;;5.03;44.85;102748.81;693190;28;1185;-92
2022/03/20 00:18:37;;;;;;;25.75;16.52;;;;;;;4.97;45.12;102740.53;690674;28;1204;-93
2022/03/20 00:18:58;;;;;;;24.88;16.73;;;;;;;5.04;45.11;102748.91;690571;28;1217;-92
2022/03/20 00:19:37;;;;;;;25.20;16.63;;;;;;;4.97;45.18;102740.53;687478;28;1174;-93
2022/03/20 00:19:58;;;;;;;26.60;17.33;;;;;;;4.95;45.20;102729.16;687645;28;1547;-93
2022/03/20 00:20:19;;;;;;;27.25;16.98;;;;;;;4.99;45.09;102733.81;693138;28;1195;-93
2022/03/20 00:20:45;;;;;;;25.80;16.50;;;;;;;4.96;45.17;102728.38;698273;28;1700;-93
2022/03/20 00:21:05;;;;;;;25.40;16.02;;;;;;;5.01;45.21;102740.00;693046;28;1950;-92
2022/03/20 00:21:26;;;;;;;25.33;16.00;;;;;;;4.95;45.42;102731.75;690662;28;1219;-93
2022/03/20 00:21:47;;;;;;;25.10;16.40;;;;;;;5.00;45.01;102738.19;690479;28;1172;-93
2022/03/20 00:22:08;;;;;;;23.30;16.63;;;;;;;4.95;45.21;102730.06;690683;28;1268;-93
2022/03/20 00:22:30;;;;;;;25.98;17.27;;;;;;;5.06;45.16;102746.47;693279;28;1850;-92
2022/03/20 00:22:50;;;;;;;25.35;17.00;;;;;;;4.93;45.29;102729.91;687947;28;1282;-93
2022/03/20 00:23:12;;;;;;;26.43;17.27;;;;;;;4.97;45.11;102730.19;687989;28;1392;-93
2022/03/20 00:23:34;;;;;;;24.33;17.08;;;;;;;5.02;44.99;102734.97;690382;28;1402;-92
2022/03/20 00:23:54;;;;;;;26.25;17.08;;;;;;;4.92;45.05;102722.94;690562;28;1250;-93
2022/03/20 00:24:47;;;;;;;27.25;16.77;;;;;;;5.07;45.14;102740.50;687731;28;1377;-93
2022/03/20 00:25:08;;;;;;;23.25;16.02;;;;;;;5.02;45.09;102732.38;689707;28;1638;-92
2022/03/20 00:25:28;;;;;;;22.35;15.38;;;;;;;4.93;45.17;102729.03;691944;28;1288;-93
2022/03/20 00:25:50;;;;;;;23.37;15.67;;;;;;;4.94;45.23;102725.66;695070;28;1132;-93
2022/03/20 00:26:11;;;;;;;24.63;16.00;;;;;;;4.95;45.24;102726.56;693232;28;1275;-93
2022/03/20 00:26:33;;;;;;;25.63;16.45;;;;;;;4.98;44.98;102735.50;693350;28;1178;-93
2022/03/20 00:26:57;;;;;;;25.90;16.70;;;;;;;4.81;45.06;102710.81;690371;28;1352;-93
2022/03/20 00:27:17;;;;;;;25.52;17.10;;;;;;;4.95;45.66;102730.06;690620;28;1406;-93
2022/03/20 00:27:39;;;;;;;27.02;17.35;;;;;;;4.91;45.18;102726.31;690071;28;1218;-93
2022/03/20 00:28:03;;;;;;;25.88;16.35;;;;;;;4.97;45.07;102732.78;693354;28;1355;-93
2022/03/20 00:28:25;;;;;;;25.70;16.45;;;;;;;4.93;45.41;102727.31;692726;28;1440;-93
2022/03/20 00:28:45;;;;;;;24.48;16.58;;;;;;;4.95;45.11;102722.28;693599;28;1329;-93
2022/03/20 00:29:07;;;;;;;29.17;17.90;;;;;;;4.99;45.02;102731.22;690549;28;1346;-93
2022/03/20 00:29:28;;;;;;;28.70;17.63;;;;;;;4.99;45.02;102726.03;690285;28;1327;-93
2022/03/20 00:29:49;;;;;;;26.92;17.13;;;;;;;4.91;45.03;102715.06;692011;28;1187;-92
2022/03/20 00:30:10;;;;;;;23.33;16.15;;;;;;;4.95;45.01;102718.81;695973;28;1264;-94
2022/03/20 00:30:31;;;;;;;23.98;16.27;;;;;;;5.00;45.26;102723.59;692375;28;1438;-93
2022/03/20 00:30:54;;;;;;;25.23;16.05;;;;;;;5.04;44.78;102727.34;693210;28;1126;-93
2022/03/20 00:31:14;;;;;;;24.55;16.40;;;;;;;5.04;44.91;102727.34;693072;28;1259;-93
2022/03/20 00:31:35;;;;;;;23.73;16.67;;;;;;;4.97;44.69;102710.38;688000;28;1320;-92
2022/03/20 00:31:55;;;;;;;27.60;17.23;;;;;;;5.00;45.17;102722.66;687820;28;1288;-93
2022/03/20 00:32:16;;;;;;;30.70;17.67;;;;;;;4.99;45.02;102724.38;695905;28;1293;-93
2022/03/20 00:32:37;;;;;;;31.98;17.50;;;;;;;5.03;45.04;102725.53;693401;28;1281;-92
2022/03/20 00:32:58;;;;;;;28.37;17.33;;;;;;;4.95;45.05;102719.69;690700;28;1141;-93
2022/03/20 00:33:19;;;;;;;28.00;17.30;;;;;;;5.04;44.90;102727.34;690621;28;1428;-93
2022/03/20 00:33:40;;;;;;;28.35;17.27;;;;;;;5.00;44.72;102714.91;693087;28;1319;-93
2022/03/20 00:34:00;;;;;;;27.52;16.70;;;;;;;5.04;44.79;102725.63;687962;28;1211;-93
2022/03/20 00:34:21;;;;;;;28.23;16.00;;;;;;;5.05;44.68;102729.13;689993;28;1288;-93
2022/03/20 00:34:41;;;;;;;25.65;16.05;;;;;;;4.93;44.61;102714.38;691132;28;1135;-93
2022/03/20 00:35:02;;;;;;;26.33;16.23;;;;;;;4.92;44.74;102699.66;687838;28;1168;-93
2022/03/20 00:35:23;;;;;;;24.43;16.47;;;;;;;4.94;45.12;102707.53;693035;28;1188;-92
2022/03/20 00:35:44;;;;;;;23.48;16.13;;;;;;;4.99;44.58;102718.28;693204;28;1466;-93
2022/03/20 00:36:05;;;;;;;25.02;16.45;;;;;;;4.91;44.88;102710.78;693371;28;1183;-93
2022/03/20 00:36:25;;;;;;;26.67;16.77;;;;;;;4.97;44.99;102719.84;693118;28;1171;-94
2022/03/20 00:36:46;;;;;;;28.33;16.90;;;;;;;4.95;45.16;102718.81;690570;28;1106;-93
2022/03/20 00:37:07;;;;;;;27.50;17.00;;;;;;;4.87;45.09;102706.16;693224;28;1233;-93
2022/03/20 00:37:29;;;;;;;28.30;16.48;;;;;;;4.95;44.96;102721.41;690555;28;1200;-94
2022/03/20 00:37:50;;;;;;;27.23;16.65;;;;;;;4.97;45.10;102722.44;693272;28;1148;-93
2022/03/20 00:38:11;;;;;;;27.52;16.30;;;;;;;4.90;45.03;102710.66;693289;28;1451;-93
2022/03/20 00:38:31;;;;;;;27.40;16.58;;;;;;;4.92;44.63;102722.94;696436;28;1818;-93
2022/03/20 00:38:52;;;;;;;28.13;16.67;;;;;;;4.95;44.86;102722.28;696054;28;1146;-93
2022/03/20 00:39:12;;;;;;;27.40;17.30;;;;;;;4.87;44.81;102711.31;692928;28;1432;-93
2022/03/20 00:39:34;;;;;;;25.85;17.20;;;;;;;4.96;44.65;102720.63;697507;28;1718;-93
2022/03/20 00:39:55;;;;;;;25.95;17.20;;;;;;;4.88;44.98;102718.31;693099;28;1272;-93
2022/03/20 00:40:15;;;;;;;26.50;17.20;;;;;;;4.84;45.09;102703.28;693178;28;1260;-93
2022/03/20 00:40:37;;;;;;;29.95;17.58;;;;;;;4.87;44.91;102708.72;690630;28;1301;-93
2022/03/20 00:40:58;;;;;;;28.00;17.02;;;;;;;4.80;44.96;102703.81;690627;28;1973;-93
2022/03/20 00:41:18;;;;;;;28.58;16.85;;;;;;;4.83;45.06;102705.78;693205;28;1244;-92
2022/03/20 00:42:00;;;;;;;27.45;16.80;;;;;;;4.93;44.97;102722.16;693809;28;1297;-93
2022/03/20 00:42:21;;;;;;;29.08;17.48;;;;;;;4.84;44.78;102705.88;692781;28;1366;-94
2022/03/20 00:42:42;;;;;;;29.02;17.88;;;;;;;4.81;45.12;102696.94;690472;28;1302;-92
2022/03/20 00:43:04;;;;;;;27.13;17.40;;;;;;;4.81;44.78;102691.78;693204;28;1547;-93
2022/03/20 00:43:25;;;;;;;28.30;17.50;;;;;;;4.83;45.21;102708.34;690614;28;1266;-92
2022/03/20 00:43:45;;;;;;;26.92;17.30;;;;;;;4.83;44.83;102706.66;688963;28;1269;-93
2022/03/20 00:44:06;;;;;;;26.30;17.30;;;;;;;4.78;45.15;102693.34;687720;28;1258;-93
2022/03/20 00:44:27;;;;;;;25.63;17.08;;;;;;;4.87;45.08;102713.91;687792;28;1254;-93
2022/03/20 00:44:47;;;;;;;24.48;16.60;;;;;;;4.79;44.99;102705.50;692268;28;1147;-93
2022/03/20 00:45:08;;;;;;;25.27;16.77;;;;;;;4.77;44.78;102707.06;690681;28;1002;-93
2022/03/20 00:45:29;;;;;;;24.47;16.70;;;;;;;4.75;44.92;102702.53;695895;28;1279;-93
2022/03/20 00:45:49;;;;;;;24.88;17.05;;;;;;;4.78;45.06;102703.69;692332;28;1486;-93
2022/03/20 00:46:10;;;;;;;23.83;17.20;;;;;;;4.73;44.97;102704.09;690517;28;1233;-93
2022/03/20 00:46:31;;;;;;;24.55;17.27;;;;;;;4.75;44.98;102707.69;690595;28;1226;-93
2022/03/20 00:46:52;;;;;;;26.52;16.90;;;;;;;4.74;44.89;102704.22;697145;28;1233;-92
2022/03/20 00:47:13;;;;;;;26.70;16.93;;;;;;;4.69;45.16;102699.44;690316;28;1202;-93
2022/03/20 00:47:33;;;;;;;27.45;17.20;;;;;;;4.65;45.37;102700.84;690395;28;1357;-92
2022/03/20 00:47:55;;;;;;;26.20;17.30;;;;;;;4.70;45.12;102709.00;697936;28;1275;-92
2022/03/20 00:48:15;;;;;;;26.77;17.40;;;;;;;4.62;45.18;102698.03;690393;28;1365;-92
2022/03/20 00:48:36;;;;;;;26.40;16.70;;;;;;;4.62;45.43;102691.19;690282;28;1599;-93
2022/03/20 00:48:56;;;;;;;23.40;15.87;;;;;;;4.70;45.15;102704.75;693284;28;1210;-93
2022/03/20 00:49:17;;;;;;;22.85;15.05;;;;;;;4.71;45.27;102716.88;690513;28;1201;-92
2022/03/20 00:49:38;;;;;;;22.43;15.40;;;;;;;4.63;45.06;102705.91;692508;28;1194;-91
2022/03/20 00:49:58;;;;;;;25.15;16.40;;;;;;;4.64;45.20;102704.22;693151;28;1230;-92
2022/03/20 00:50:19;;;;;;;24.33;16.40;;;;;;;4.65;45.36;102717.28;695992;28;1191;-93
2022/03/20 00:50:40;;;;;;;23.97;16.70;;;;;;;4.57;45.06;102707.97;693758;28;1810;-93
2022/03/20 00:51:03;;;;;;;23.73;16.33;;;;;;;4.58;45.19;102707.19;687900;28;1240;-93
2022/03/20 00:51:24;;;;;;;26.95;16.73;;;;;;;4.55;45.47;102704.38;693252;28;1299;-93
2022/03/20 00:51:44;;;;;;;27.35;16.67;;;;;;;4.56;45.51;102695.84;691832;28;1270;-93
2022/03/20 00:52:06;;;;;;;26.83;16.93;;;;;;;4.60;45.36;102713.41;693154;28;1242;-93
2022/03/20 00:52:27;;;;;;;25.58;16.88;;;;;;;4.47;45.57;102689.91;693259;28;1382;-93
2022/03/20 00:52:47;;;;;;;27.75;17.55;;;;;;;4.48;45.57;102697.75;690534;28;1184;-93
2022/03/20 00:53:09;;;;;;;28.00;17.10;;;;;;;4.47;45.47;102695.06;687768;28;1176;-92
2022/03/20 00:53:30;;;;;;;29.48;17.50;;;;;;;4.54;45.42;102705.13;690624;28;1259;-93
2022/03/20 00:53:51;;;;;;;28.20;16.85;;;;;;;4.52;45.61;102696.34;695869;28;1251;-93
2022/03/20 00:54:12;;;;;;;27.25;17.25;;;;;;;4.56;45.21;102706.19;695998;28;1335;-93
2022/03/20 00:54:33;;;;;;;25.95;17.42;;;;;;;4.54;45.16;102702.53;690394;28;1582;-93
2022/03/20 00:54:54;;;;;;;27.02;17.77;;;;;;;4.55;45.12;102701.78;693308;28;1278;-93
2022/03/20 00:55:14;;;;;;;26.77;17.33;;;;;;;4.43;45.47;102686.16;692498;28;1154;-93
2022/03/20 00:55:35;;;;;;;28.53;17.90;;;;;;;4.52;45.32;102698.91;695779;28;1502;-93
2022/03/20 00:55:56;;;;;;;25.98;17.15;;;;;;;4.50;45.25;102692.72;690586;28;1300;-93
2022/03/20 00:56:16;;;;;;;26.30;16.85;;;;;;;4.50;45.08;102700.47;690545;28;1405;-93
2022/03/20 00:56:38;;;;;;;25.20;16.23;;;;;;;4.44;45.29;102689.63;693256;28;1231;-92
2022/03/20 00:56:59;;;;;;;26.35;16.20;;;;;;;4.45;45.74;102694.00;690550;28;1300;-93
2022/03/20 00:57:20;;;;;;;24.80;16.48;;;;;;;4.45;45.44;102688.84;690440;28;1294;-93
2022/03/20 00:57:40;;;;;;;26.60;16.70;;;;;;;4.50;45.54;102700.47;695686;28;1586;-93
2022/03/20 00:58:01;;;;;;;26.38;16.77;;;;;;;4.52;45.29;102696.34;692651;28;1474;-92
2022/03/20 00:58:22;;;;;;;27.07;16.60;;;;;;;4.58;45.30;102703.69;690449;28;1279;-93
2022/03/20 00:58:42;;;;;;;26.67;16.73;;;;;;;4.54;45.33;102691.31;689011;28;1205;-92
2022/03/20 00:59:03;;;;;;;27.35;16.88;;;;;;;4.52;45.19;102691.16;695950;28;1351;-93
2022/03/20 00:59:24;;;;;;;27.20;16.73;;;;;;;4.51;45.22;102687.69;690480;28;1269;-93
2022/03/20 00:59:45;;;;;;;25.70;16.10;;;;;;;4.57;45.05;102699.31;689947;28;1208;-93
2022/03/20 01:00:06;;;;;;;26.60;16.27;;;;;;;4.47;45.20;102684.72;690575;28;1256;-93
2022/03/20 01:00:27;;;;;;;26.58;16.33;;;;;;;4.51;45.52;102707.47;690479;28;1233;-93
2022/03/20 01:00:50;;;;;;;27.47;16.80;;;;;;;4.52;45.37;102694.66;693086;28;1468;-92
2022/03/20 01:01:11;;;;;;;26.25;17.10;;;;;;;4.54;45.44;102702.53;690393;28;1324;-93
2022/03/20 01:01:32;;;;;;;25.83;17.02;;;;;;;4.58;45.34;102698.53;687579;28;1283;-93
2022/03/20 01:01:53;;;;;;;24.63;16.65;;;;;;;4.55;45.14;102694.03;692977;28;1230;-93
2022/03/20 01:02:14;;;;;;;24.50;16.20;;;;;;;4.54;45.20;102691.31;695766;28;1203;-93
2022/03/20 01:02:42;;;;;;;23.52;16.00;;;;;;;4.60;45.19;102692.72;691782;28;1325;-93
2022/03/20 01:03:03;;;;;;;24.98;16.88;;;;;;;4.69;45.13;102702.00;690627;28;1258;-93
2022/03/20 01:03:23;;;;;;;24.77;17.25;;;;;;;4.61;45.23;102684.16;687797;28;1251;-93
2022/03/20 01:03:44;;;;;;;25.73;17.07;;;;;;;4.58;44.76;102686.50;689794;28;1481;-93
2022/03/20 01:04:05;;;;;;;27.15;17.15;;;;;;;4.61;44.81;102685.88;690137;28;1169;-92
2022/03/20 01:04:26;;;;;;;28.25;17.30;;;;;;;4.55;45.00;102683.69;687906;28;1260;-93
2022/03/20 01:04:47;;;;;;;28.02;16.90;;;;;;;4.58;45.16;102690.75;691296;28;1542;-93
2022/03/20 01:05:08;;;;;;;28.27;16.67;;;;;;;4.58;44.86;102689.09;696048;28;1265;-92
2022/03/20 01:05:29;;;;;;;27.30;16.42;;;;;;;4.58;44.71;102689.09;690623;28;1224;-93
2022/03/20 01:05:49;;;;;;;25.70;16.67;;;;;;;4.60;44.81;102694.41;691255;28;1221;-93
2022/03/20 01:06:11;;;;;;;27.90;17.00;;;;;;;4.56;44.57;102690.66;693145;28;1302;-92
2022/03/20 01:06:32;;;;;;;27.08;16.67;;;;;;;4.51;44.98;102682.53;693412;28;1302;-93
2022/03/20 01:06:55;;;;;;;28.27;16.40;;;;;;;4.58;44.66;102680.41;690166;28;1278;-93
2022/03/20 01:07:16;;;;;;;23.08;16.20;;;;;;;4.60;44.69;102691.81;690542;28;1388;-93
2022/03/20 01:07:37;;;;;;;26.80;16.83;;;;;;;4.58;45.11;102691.69;692983;28;1131;-93
2022/03/20 01:08:00;;;;;;;26.40;16.35;;;;;;;4.49;44.91;102678.88;690626;28;1425;-93
2022/03/20 01:08:20;;;;;;;27.33;16.10;;;;;;;4.58;44.80;102688.19;693128;28;1538;-93
2022/03/20 01:08:42;;;;;;;26.87;16.73;;;;;;;4.53;45.23;102685.22;693142;28;1712;-93
2022/03/20 01:09:03;;;;;;;27.92;17.63;;;;;;;4.56;44.83;102690.66;693191;28;1194;-93
2022/03/20 01:09:24;;;;;;;29.52;17.88;;;;;;;4.46;44.95;102672.53;690434;28;1527;-94
2022/03/20 01:09:45;;;;;;;28.07;17.30;;;;;;;4.55;44.85;102688.84;692537;28;1358;-93
2022/03/20 01:10:07;;;;;;;26.50;16.98;;;;;;;4.48;45.12;102671.91;687906;28;1439;-93
2022/03/20 01:10:28;;;;;;;25.48;16.60;;;;;;;4.48;44.73;102674.50;690577;28;1638;-93
2022/03/20 01:10:48;;;;;;;24.43;16.50;;;;;;;4.54;45.05;102680.97;691790;28;1273;-93
2022/03/20 01:11:09;;;;;;;25.10;16.70;;;;;;;4.51;45.06;102677.34;695980;28;1149;-93
2022/03/20 01:11:30;;;;;;;23.75;16.73;;;;;;;4.54;44.88;102679.25;696228;28;1202;-93
2022/03/20 01:11:50;;;;;;;23.43;16.60;;;;;;;4.58;44.69;102677.84;690527;28;1243;-92
2022/03/20 01:12:11;;;;;;;23.52;16.52;;;;;;;4.53;45.08;102680.03;689619;28;1212;-92
2022/03/20 01:12:33;;;;;;;24.20;16.23;;;;;;;4.60;44.82;102681.47;693234;28;1203;-93
2022/03/20 01:12:55;;;;;;;25.50;15.98;;;;;;;4.60;44.75;102677.19;693063;28;1395;-93
2022/03/20 01:13:16;;;;;;;25.80;16.00;;;;;;;4.63;44.61;102677.47;693166;28;1287;-93
2022/03/20 01:13:37;;;;;;;25.80;16.37;;;;;;;4.59;44.83;102677.97;693188;28;1322;-93
2022/03/20 01:14:08;;;;;;;24.55;16.27;;;;;;;4.56;44.52;102666.47;692283;28;1370;-93
2022/03/20 01:14:30;;;;;;;24.00;16.27;;;;;;;4.60;44.83;102671.13;687781;28;1225;-93
2022/03/20 01:14:50;;;;;;;23.40;16.10;;;;;;;4.53;44.94;102661.94;688332;28;1259;-93
2022/03/20 01:15:13;;;;;;;25.42;16.38;;;;;;;4.60;44.42;102677.19;691854;28;1725;-92
2022/03/20 01:15:33;;;;;;;25.38;15.85;;;;;;;4.59;44.68;102670.22;693314;28;933;-93
2022/03/20 01:15:54;;;;;;;24.77;16.17;;;;;;;4.54;44.41;102666.31;693010;28;1500;-93
2022/03/20 01:16:33;;;;;;;24.10;16.37;;;;;;;4.62;44.46;102675.66;690371;28;1218;-93
2022/03/20 01:16:57;;;;;;;25.05;17.02;;;;;;;4.59;44.46;102669.34;693020;28;1336;-93
2022/03/20 01:17:37;;;;;;;25.83;17.60;;;;;;;4.60;44.36;102671.13;690388;28;1353;-93
2022/03/20 01:17:58;;;;;;;25.38;16.90;;;;;;;4.54;44.39;102662.84;693303;28;1212;-93
2022/03/20 01:18:19;;;;;;;26.25;16.48;;;;;;;4.52;44.61;102662.72;693226;28;1202;-93
2022/03/20 01:18:40;;;;;;;26.63;16.50;;;;;;;4.52;44.55;102670.47;688596;28;1252;-93
2022/03/20 01:19:06;;;;;;;27.30;16.80;;;;;;;4.51;44.77;102667.00;695981;28;1265;-92
2022/03/20 01:19:27;;;;;;;27.20;16.88;;;;;;;4.58;44.51;102675.25;695601;28;1382;-92
2022/03/20 01:19:47;;;;;;;27.17;17.00;;;;;;;4.54;44.63;102668.03;692866;28;1232;-93
2022/03/20 01:20:09;;;;;;;28.45;17.23;;;;;;;4.57;44.71;102670.84;690485;28;1193;-92
2022/03/20 01:20:29;;;;;;;27.83;16.92;;;;;;;4.54;44.52;102666.31;692750;28;1310;-93
2022/03/20 01:20:51;;;;;;;28.33;16.95;;;;;;;4.56;44.75;102663.88;690408;28;1987;-93
2022/03/20 01:21:12;;;;;;;27.17;16.83;;;;;;;4.63;44.56;102677.47;695786;28;1213;-93
2022/03/20 01:21:32;;;;;;;27.05;17.08;;;;;;;4.60;44.59;102665.97;695927;28;1267;-93
2022/03/20 01:21:54;;;;;;;26.60;17.27;;;;;;;4.59;44.61;102659.88;692315;28;1449;-93
2022/03/20 01:22:16;;;;;;;26.80;17.20;;;;;;;4.57;44.39;102664.03;695837;28;1322;-93
2022/03/20 01:22:38;;;;;;;25.77;17.13;;;;;;;4.50;44.51;102656.53;692607;28;1300;-93
2022/03/20 01:22:59;;;;;;;24.65;16.60;;;;;;;4.51;44.27;102654.06;685306;28;1346;-93
2022/03/20 01:23:21;;;;;;;25.65;17.08;;;;;;;4.51;44.56;102650.56;685098;28;1371;-93
2022/03/20 01:23:41;;;;;;;27.58;17.05;;;;;;;4.56;44.51;102659.63;694883;28;1258;-93
2022/03/20 01:24:02;;;;;;;27.80;17.30;;;;;;;4.54;44.55;102661.16;698700;28;1394;-92
2022/03/20 01:24:24;;;;;;;27.48;16.88;;;;;;;4.52;44.36;102652.38;695852;28;1328;-92
2022/03/20 01:24:45;;;;;;;26.50;17.05;;;;;;;4.62;44.36;102664.41;691994;28;1212;-93
2022/03/20 01:25:06;;;;;;;26.98;17.05;;;;;;;4.56;44.19;102659.63;693063;28;1389;-92
2022/03/20 01:25:27;;;;;;;27.90;17.15;;;;;;;4.49;44.40;102644.38;689640;28;1274;-93
2022/03/20 01:25:49;;;;;;;27.08;16.73;;;;;;;4.43;44.67;102646.44;694908;28;1163;-93
2022/03/20 01:26:11;;;;;;;25.98;16.92;;;;;;;4.47;44.71;102651.13;695921;28;1345;-93
2022/03/20 01:26:31;;;;;;;23.33;16.48;;;;;;;4.43;44.52;102636.09;693307;28;1281;-93
2022/03/20 01:26:52;;;;;;;23.63;16.30;;;;;;;4.47;44.42;102648.53;693094;28;1289;-93
2022/03/20 01:27:13;;;;;;;24.97;16.20;;;;;;;4.52;44.30;102648.13;690305;28;1439;-92
2022/03/20 01:27:34;;;;;;;26.35;16.20;;;;;;;4.56;44.67;102658.72;693130;28;1622;-93
2022/03/20 01:27:54;;;;;;;26.40;15.82;;;;;;;4.52;44.29;102642.03;693185;28;1262;-93
2022/03/20 01:28:16;;;;;;;25.20;15.82;;;;;;;4.58;44.16;102646.81;691851;28;1204;-93
2022/03/20 01:28:37;;;;;;;25.10;16.13;;;;;;;4.52;44.22;102636.88;687851;28;1292;-93
2022/03/20 01:28:57;;;;;;;26.33;16.53;;;;;;;4.54;44.09;102639.59;693358;28;1310;-92
2022/03/20 01:29:18;;;;;;;25.98;16.70;;;;;;;4.58;43.95;102646.81;693164;28;1255;-93
2022/03/20 01:29:39;;;;;;;24.50;16.67;;;;;;;4.53;44.51;102636.06;692572;28;1180;-93
2022/03/20 01:30:00;;;;;;;24.08;16.77;;;;;;;4.52;44.08;102647.22;695726;28;1294;-93
2022/03/20 01:30:21;;;;;;;23.52;16.55;;;;;;;4.57;44.25;102648.50;690413;28;1347;-93
2022/03/20 01:30:43;;;;;;;25.73;17.10;;;;;;;4.46;43.98;102631.16;693005;28;1215;-92
2022/03/20 01:31:04;;;;;;;24.95;17.00;;;;;;;4.56;44.46;102638.94;695472;28;1360;-93
2022/03/20 01:31:24;;;;;;;24.73;16.85;;;;;;;4.59;44.36;102646.06;690413;28;1309;-93
2022/03/20 01:31:45;;;;;;;23.37;16.57;;;;;;;4.63;44.45;102656.78;691709;28;1155;-93
2022/03/20 01:32:06;;;;;;;26.03;17.40;;;;;;;4.53;44.15;102628.31;690481;28;1208;-94
2022/03/20 01:32:28;;;;;;;26.08;17.30;;;;;;;4.61;44.28;102642.78;689985;28;1307;-93
2022/03/20 01:32:48;;;;;;;26.17;17.30;;;;;;;4.59;43.96;102639.19;687743;28;1276;-93
2022/03/20 01:33:09;;;;;;;25.13;16.25;;;;;;;4.54;44.12;102632.72;695865;28;1072;-93
2022/03/20 01:33:29;;;;;;;25.97;16.30;;;;;;;4.59;44.17;102639.19;693397;28;1248;-93
2022/03/20 01:33:50;;;;;;;25.35;16.25;;;;;;;4.50;43.99;102633.25;690492;28;1201;-93
2022/03/20 01:34:10;;;;;;;24.48;16.92;;;;;;;4.57;43.81;102643.34;690161;28;1175;-92
2022/03/20 01:34:31;;;;;;;22.97;16.80;;;;;;;4.50;44.02;102628.09;690514;28;1840;-93
2022/03/20 01:34:54;;;;;;;24.85;16.88;;;;;;;4.53;44.15;102630.91;693108;28;1368;-92
2022/03/20 01:35:15;;;;;;;26.00;16.58;;;;;;;4.56;43.97;102643.19;690600;28;1082;-92
2022/03/20 01:35:35;;;;;;;26.87;16.30;;;;;;;4.42;44.37;102629.13;689590;28;1551;-92
2022/03/20 01:35:56;;;;;;;25.95;16.58;;;;;;;4.49;44.45;102634.03;689002;28;1781;-92
2022/03/20 01:36:17;;;;;;;26.27;16.60;;;;;;;4.44;43.86;102627.56;696104;28;1175;-93
2022/03/20 01:36:38;;;;;;;27.50;17.35;;;;;;;4.50;44.18;102638.44;694949;28;1179;-93
2022/03/20 01:36:58;;;;;;;27.67;17.45;;;;;;;4.52;44.24;102639.44;685325;28;1190;-92
2022/03/20 01:37:19;;;;;;;26.58;17.40;;;;;;;4.45;43.97;102629.38;693041;28;1111;-93
2022/03/20 01:37:42;;;;;;;27.02;17.50;;;;;;;4.51;44.01;102640.22;689347;28;1527;-93
2022/03/20 01:38:07;;;;;;;27.95;17.45;;;;;;;4.46;43.88;102629.50;688734;28;1162;-92
2022/03/20 01:38:27;;;;;;;28.50;17.70;;;;;;;4.56;44.14;102641.53;693164;28;1264;-92
2022/03/20 01:38:48;;;;;;;27.33;17.53;;;;;;;4.46;44.11;102623.41;692119;28;1204;-94
2022/03/20 01:39:08;;;;;;;25.08;16.90;;;;;;;4.44;44.00;102624.97;690582;28;1083;-93
2022/03/20 01:39:29;;;;;;;23.13;16.10;;;;;;;4.51;44.07;102624.72;693090;28;1282;-93
2022/03/20 01:39:50;;;;;;;23.33;15.70;;;;;;;4.53;43.85;102623.16;692194;28;1295;-92
2022/03/20 01:40:10;;;;;;;23.90;16.42;;;;;;;4.47;44.08;102618.38;690331;28;1190;-92
2022/03/20 01:40:31;;;;;;;24.98;17.10;;;;;;;4.47;43.89;102613.22;693124;28;1661;-93
2022/03/20 01:40:52;;;;;;;25.17;17.23;;;;;;;4.52;44.06;102626.53;692957;28;1878;-93
2022/03/20 01:41:13;;;;;;;28.10;17.42;;;;;;;4.47;43.99;102615.78;693284;28;1035;-92
2022/03/20 01:41:34;;;;;;;28.25;17.55;;;;;;;4.59;43.75;102639.19;695781;28;1309;-94